West Amana, Iowa
Current Conditions -  °F | °C
As of 9:17 PM on Friday 24 Oct 2014 (Local Time) from KCID Reporting Station
Light Fog Light Fog  
Wind Chill: 55°   Ceiling: 2200
Heat Index: 55°   Visibility: 1.5mi
Dew Point: 55°   Wind: 6mph
Humidity: 100%   Direction: 200°SSW
Pressure: 29.94"   Gusts: NA
Location:  41.8244°N, 91.8792°W
Report Text: KCID 250217Z 20005KT 1 1/2SM BR BCFG SCT006 BKN022 13/13 A2994 RMK AO2 T01280128
Loading
Personal Weather Stations






























Interactive Weather Map
Tropical Storm Tracking
New forecast layout! Learn more

10-Day Weather Forecast

Advertisements
Track Severe Weather on mobile